Decoded Metar for SVBM (BARQUISIMETO in VENEZUELA) (IATA:BRM) | Meteo·Mobile Aviation Weather
aviador You're here:

SVBM Decoded Metar

BARQUISIMETO in VENEZUELA
Report Time2018-09-18 23:00:00
UTC Time2018-09-18 23:55:27
Flight Rules vfr VFR
Wind090° at 04 kt
W.Decomp.*RWY 09: 4.0 kt HW 0.6 kt RCW
W.Rank090° ranks 2
Current wind is below 090° avg. (7.3)
Visibility9999 m
Phenomena:N/A
Clouds:Few 016 Hf
Scattered 070 Hf
Expected CloudBase > 2,400 ft AGL from Temp-Dew spread
CeilingNone
Temp27°C (ISA +16)
Dew Point21°C (70% RH)
Heat Index28.9°C
QNH1012 hPa
Density Alt4,222 ft
Elevation2,014 ft
Report Wrong Elevation
Raw Report
METAR SVBM 182300Z 09004KT 9999 FEW016 SCT070 27/21 Q1012=

Extra information for SVBM:More info

Metar Taf Metar & Taf Last 4 Metars F.Rules Stats Wind Profile Meteogram Temp Stats Airport Information Weather charts Add Link Nearby VenuesMetar ALERT Operation Metar Decoded Social comments